createdAt,value
2023-02-27T00:02:19.527Z,-1.25
2023-02-27T00:04:47.352Z,-1.26
2023-02-27T00:07:15.317Z,-1.24
2023-02-27T00:09:43.304Z,-1.25
2023-02-27T00:12:13.174Z,-1.25
2023-02-27T00:14:42.373Z,-1.24
2023-02-27T00:17:10.168Z,-1.25
2023-02-27T00:19:37.874Z,-1.25
2023-02-27T00:22:05.567Z,-1.25
2023-02-27T00:24:33.332Z,-1.27
2023-02-27T00:27:01.241Z,-1.27
2023-02-27T00:29:29.020Z,-1.27
2023-02-27T00:31:56.862Z,-1.25
2023-02-27T00:34:24.655Z,-1.27
2023-02-27T00:36:52.400Z,-1.28
2023-02-27T00:39:20.200Z,-1.26
2023-02-27T00:41:47.983Z,-1.27
2023-02-27T00:44:15.681Z,-1.28
2023-02-27T00:46:43.996Z,-1.29
2023-02-27T00:49:11.633Z,-1.26
2023-02-27T00:51:39.242Z,-1.27
2023-02-27T00:54:07.080Z,-1.27
2023-02-27T00:56:35.835Z,-1.25
2023-02-27T00:59:03.733Z,-1.24
2023-02-27T01:01:31.467Z,-1.23
2023-02-27T01:03:59.197Z,-1.22
2023-02-27T01:06:27.163Z,-1.20
2023-02-27T01:08:54.875Z,-1.18
2023-02-27T01:11:23.115Z,-1.17
2023-02-27T01:13:50.853Z,-1.19
2023-02-27T01:16:18.599Z,-1.15
2023-02-27T01:18:46.348Z,-1.17
2023-02-27T01:21:14.106Z,-1.14
2023-02-27T01:23:41.817Z,-1.17
2023-02-27T01:26:09.623Z,-1.18
2023-02-27T01:28:37.528Z,-1.18
2023-02-27T01:31:05.510Z,-1.17
2023-02-27T01:33:33.449Z,-1.19
2023-02-27T01:36:01.155Z,-1.19
2023-02-27T01:38:28.959Z,-1.21
2023-02-27T01:40:58.366Z,-1.20
2023-02-27T01:43:26.140Z,-1.22
2023-02-27T01:45:54.088Z,-1.22
2023-02-27T01:48:27.399Z,-1.24
2023-02-27T01:51:21.064Z,-1.24
2023-02-27T01:53:54.303Z,-1.25
2023-02-27T01:56:28.648Z,-1.27
2023-02-27T01:59:02.855Z,-1.27
2023-02-27T02:01:32.979Z,-1.25
2023-02-27T02:04:34.145Z,-1.30
2023-02-27T02:07:08.348Z,-1.31
2023-02-27T02:09:41.265Z,-1.34
2023-02-27T02:12:09.613Z,-1.33
2023-02-27T02:14:37.259Z,-1.35
2023-02-27T02:17:10.933Z,-1.36
2023-02-27T02:19:56.029Z,-1.36
2023-02-27T02:22:47.742Z,-1.35
2023-02-27T02:25:52.959Z,-1.39
2023-02-27T02:28:43.391Z,-1.39
2023-02-27T02:31:28.617Z,-1.37
2023-02-27T02:34:48.082Z,-1.39
2023-02-27T02:38:07.205Z,-1.39
2023-02-27T02:40:52.543Z,-1.37
2023-02-27T02:43:53.158Z,-1.37
2023-02-27T02:46:45.751Z,-1.38
2023-02-27T02:49:25.151Z,-1.36
2023-02-27T02:52:03.880Z,-1.35
2023-02-27T02:54:55.899Z,-1.35
2023-02-27T02:57:35.807Z,-1.34
2023-02-27T03:00:14.534Z,-1.33
2023-02-27T03:02:51.839Z,-1.30
2023-02-27T03:05:35.188Z,-1.27
2023-02-27T03:08:13.524Z,-1.24
2023-02-27T03:10:57.483Z,-1.22
2023-02-27T03:13:43.146Z,-1.18
2023-02-27T03:16:19.429Z,-1.16
2023-02-27T03:19:19.685Z,-1.13
2023-02-27T03:21:50.798Z,-1.13
2023-02-27T03:24:24.651Z,-1.10
2023-02-27T03:26:54.569Z,-1.11
2023-02-27T03:29:31.164Z,-1.10
2023-02-27T03:32:05.566Z,-1.11
2023-02-27T03:34:41.171Z,-1.08
2023-02-27T03:37:24.219Z,-1.13
2023-02-27T03:39:55.844Z,-1.10
2023-02-27T03:42:37.969Z,-1.11
2023-02-27T03:45:20.674Z,-1.11
2023-02-27T03:47:48.701Z,-1.12
2023-02-27T03:50:16.965Z,-1.11
2023-02-27T03:52:45.464Z,-1.12
2023-02-27T03:55:17.833Z,-1.15
2023-02-27T03:57:48.936Z,-1.14
2023-02-27T04:00:20.334Z,-1.16
2023-02-27T04:02:52.364Z,-1.14
2023-02-27T04:05:21.324Z,-1.20
2023-02-27T04:08:11.338Z,-1.19
2023-02-27T04:11:00.565Z,-1.19
2023-02-27T04:14:13.997Z,-1.22
2023-02-27T04:16:47.863Z,-1.24
2023-02-27T04:19:38.104Z,-1.25
2023-02-27T04:22:22.952Z,-1.29
2023-02-27T04:25:13.531Z,-1.30
2023-02-27T04:28:05.436Z,-1.34
2023-02-27T04:31:10.616Z,-1.32
2023-02-27T04:33:52.960Z,-1.34
2023-02-27T04:36:43.993Z,-1.36
2023-02-27T04:39:33.520Z,-1.35
2023-02-27T04:42:06.417Z,-1.37
2023-02-27T04:44:37.798Z,-1.37
2023-02-27T04:47:08.526Z,-1.37
2023-02-27T04:49:50.071Z,-1.37
2023-02-27T04:52:44.798Z,-1.37
2023-02-27T04:55:15.353Z,-1.38
2023-02-27T04:58:07.408Z,-1.37
2023-02-27T05:00:38.498Z,-1.38
2023-02-27T05:03:30.780Z,-1.38
2023-02-27T05:06:01.140Z,-1.40
2023-02-27T05:08:34.472Z,-1.40
2023-02-27T05:11:27.392Z,-1.41
2023-02-27T05:14:01.354Z,-1.41
2023-02-27T05:16:51.230Z,-1.40
2023-02-27T05:19:21.790Z,-1.43
2023-02-27T05:22:01.718Z,-1.43
2023-02-27T05:24:32.117Z,-1.43
2023-02-27T05:27:04.614Z,-1.42
2023-02-27T05:29:35.688Z,-1.42
2023-02-27T05:32:28.946Z,-1.41
2023-02-27T05:35:17.735Z,-1.38
2023-02-27T05:37:54.927Z,-1.38
2023-02-27T05:40:31.089Z,-1.36
2023-02-27T05:43:20.122Z,-1.36
2023-02-27T05:45:51.349Z,-1.36
2023-02-27T05:48:25.324Z,-1.38
2023-02-27T05:50:54.722Z,-1.37
2023-02-27T05:53:26.172Z,-1.36
2023-02-27T05:55:57.648Z,-1.35
2023-02-27T05:58:27.936Z,-1.35
2023-02-27T06:00:57.866Z,-1.35
2023-02-27T06:03:27.272Z,-1.38
2023-02-27T06:05:58.284Z,-1.35
2023-02-27T06:08:26.636Z,-1.36
2023-02-27T06:10:56.312Z,-1.35
2023-02-27T06:13:24.985Z,-1.32
2023-02-27T06:15:53.085Z,-1.35
2023-02-27T06:18:21.486Z,-1.32
2023-02-27T06:20:49.785Z,-1.30
2023-02-27T06:23:18.334Z,-1.30
2023-02-27T06:25:46.580Z,-1.27
2023-02-27T06:28:14.383Z,-1.24
2023-02-27T06:30:42.392Z,-1.23
2023-02-27T06:33:10.949Z,-1.24
2023-02-27T06:35:38.840Z,-1.23
2023-02-27T06:38:06.574Z,-1.19
2023-02-27T06:40:34.218Z,-1.16
2023-02-27T06:43:02.280Z,-1.16
2023-02-27T06:45:29.969Z,-1.16
2023-02-27T06:47:57.617Z,-1.12
2023-02-27T06:50:25.426Z,-1.11
2023-02-27T06:52:53.238Z,-1.09
2023-02-27T06:55:23.754Z,-1.06
2023-02-27T06:57:51.498Z,-1.04
2023-02-27T07:00:19.855Z,-1.02
2023-02-27T07:02:47.963Z,-1.00
2023-02-27T07:05:15.661Z,-0.93
2023-02-27T07:07:43.408Z,-0.84
2023-02-27T07:10:14.184Z,-0.77
2023-02-27T07:12:42.256Z,-0.69
2023-02-27T07:15:10.578Z,-0.64
2023-02-27T07:17:38.955Z,-0.58
2023-02-27T07:20:11.792Z,-0.48
2023-02-27T07:22:40.934Z,-0.43
2023-02-27T07:25:09.652Z,-0.38
2023-02-27T07:27:37.351Z,-0.33
2023-02-27T07:30:05.503Z,-0.31
2023-02-27T07:32:33.204Z,-0.31
2023-02-27T07:35:00.851Z,-0.27
2023-02-27T07:37:28.609Z,-0.26
2023-02-27T07:39:57.127Z,-0.22
2023-02-27T07:42:24.903Z,-0.20
2023-02-27T07:44:52.592Z,-0.22
2023-02-27T07:47:20.321Z,0.10
2023-02-27T07:49:48.009Z,0.12
2023-02-27T07:52:15.722Z,0.11
2023-02-27T07:54:43.579Z,0.17
2023-02-27T07:57:11.340Z,0.17
2023-02-27T07:59:39.017Z,0.18
2023-02-27T08:02:06.772Z,0.18
2023-02-27T08:04:34.606Z,0.15
2023-02-27T08:07:02.434Z,0.13
2023-02-27T08:09:31.832Z,0.17
2023-02-27T08:11:59.852Z,0.21
2023-02-27T08:14:27.614Z,0.21
2023-02-27T08:16:55.372Z,0.22
2023-02-27T08:19:23.008Z,0.22
2023-02-27T08:21:50.910Z,0.24
2023-02-27T08:24:18.988Z,0.26
2023-02-27T08:26:46.746Z,0.29
2023-02-27T08:29:16.883Z,0.27
2023-02-27T08:31:44.985Z,0.26
2023-02-27T08:34:12.770Z,0.26
2023-02-27T08:36:40.963Z,0.27
2023-02-27T08:39:09.433Z,0.29
2023-02-27T08:41:37.323Z,0.30
2023-02-27T08:44:05.316Z,0.35
2023-02-27T08:46:33.078Z,0.39
2023-02-27T08:49:00.832Z,0.40
2023-02-27T08:51:29.179Z,0.41
2023-02-27T08:53:59.979Z,0.41
2023-02-27T08:56:29.048Z,0.43
2023-02-27T08:58:57.376Z,0.46
2023-02-27T09:01:28.458Z,0.48
2023-02-27T09:03:56.673Z,0.52
2023-02-27T09:06:26.263Z,0.52
2023-02-27T09:08:54.540Z,0.55
2023-02-27T09:11:22.766Z,0.61
2023-02-27T09:13:50.569Z,0.61
2023-02-27T09:16:19.489Z,0.56
2023-02-27T09:18:47.564Z,0.55
2023-02-27T09:21:15.751Z,0.55
2023-02-27T09:23:43.470Z,0.61
2023-02-27T09:26:11.659Z,0.62
2023-02-27T09:28:41.633Z,0.64
2023-02-27T09:31:10.390Z,0.72
2023-02-27T09:33:39.528Z,0.80
2023-02-27T09:36:07.957Z,0.78
2023-02-27T09:38:36.987Z,0.79
2023-02-27T09:41:06.324Z,0.89
2023-02-27T09:44:02.622Z,0.87
2023-02-27T09:46:30.733Z,0.96
2023-02-27T09:49:03.076Z,1.05
2023-02-27T09:51:30.874Z,1.11
2023-02-27T09:54:02.850Z,1.22
2023-02-27T09:56:33.892Z,1.27
2023-02-27T09:59:28.752Z,1.28
2023-02-27T10:02:30.388Z,1.29
2023-02-27T10:05:37.062Z,1.31
2023-02-27T10:08:27.511Z,1.29
2023-02-27T10:11:06.517Z,1.27
2023-02-27T10:13:48.565Z,1.28
2023-02-27T10:16:20.603Z,1.29
2023-02-27T10:18:56.168Z,1.26
2023-02-27T10:21:32.421Z,1.23
2023-02-27T10:24:08.459Z,1.18
2023-02-27T10:26:42.734Z,1.21
2023-02-27T10:29:42.830Z,1.26
2023-02-27T10:32:16.793Z,1.29
2023-02-27T10:34:48.413Z,1.36
2023-02-27T10:37:19.625Z,1.40
2023-02-27T10:39:53.147Z,1.39
2023-02-27T10:42:21.413Z,1.37
2023-02-27T10:44:54.683Z,1.37
2023-02-27T10:47:25.022Z,1.37
2023-02-27T10:49:54.343Z,1.42
2023-02-27T10:52:22.498Z,1.44
2023-02-27T10:54:50.230Z,1.41
2023-02-27T10:57:44.236Z,1.43
2023-02-27T11:00:24.677Z,1.48
2023-02-27T11:02:55.759Z,1.48
2023-02-27T11:05:26.133Z,1.47
2023-02-27T11:07:54.802Z,1.49
2023-02-27T11:10:29.275Z,1.49
2023-02-27T11:13:04.778Z,1.44
2023-02-27T11:15:35.832Z,1.50
2023-02-27T11:18:27.873Z,1.48
2023-02-27T11:21:11.253Z,1.49
2023-02-27T11:23:39.207Z,1.43
2023-02-27T11:26:25.505Z,1.39
2023-02-27T11:29:16.170Z,1.35
2023-02-27T11:31:52.424Z,1.41
2023-02-27T11:34:39.464Z,1.41
2023-02-27T11:37:19.828Z,1.47
2023-02-27T11:39:54.177Z,1.42
2023-02-27T11:42:32.128Z,1.33
2023-02-27T11:45:04.138Z,1.36
2023-02-27T11:47:36.963Z,1.43
2023-02-27T11:50:11.086Z,1.53
2023-02-27T11:53:17.094Z,1.59
2023-02-27T11:55:47.170Z,1.60
2023-02-27T11:58:20.121Z,1.56
2023-02-27T12:00:57.227Z,1.63
2023-02-27T12:03:47.271Z,1.71
2023-02-27T12:06:20.690Z,1.78
2023-02-27T12:09:03.984Z,1.79
2023-02-27T12:11:45.853Z,1.81
2023-02-27T12:14:22.483Z,1.78
2023-02-27T12:17:16.653Z,1.76
2023-02-27T12:19:48.431Z,1.73
2023-02-27T12:22:25.679Z,1.66
2023-02-27T12:25:01.989Z,1.68
2023-02-27T12:27:55.417Z,1.73
2023-02-27T12:30:27.399Z,1.75
2023-02-27T12:33:19.166Z,1.73
2023-02-27T12:35:55.492Z,1.75
2023-02-27T12:38:25.385Z,1.76
2023-02-27T12:41:03.998Z,1.80
2023-02-27T12:43:47.251Z,1.84
2023-02-27T12:46:15.081Z,1.74
2023-02-27T12:48:48.993Z,1.70
2023-02-27T12:51:30.599Z,1.61
2023-02-27T12:54:30.668Z,1.54
2023-02-27T12:57:07.699Z,1.50
2023-02-27T13:00:07.694Z,1.48
2023-02-27T13:03:27.149Z,1.29
2023-02-27T13:06:04.231Z,1.25
2023-02-27T13:08:48.473Z,1.22
2023-02-27T13:11:28.534Z,1.13
2023-02-27T13:14:18.025Z,1.07
2023-02-27T13:16:51.423Z,0.96
2023-02-27T13:19:27.838Z,0.95
2023-02-27T13:22:01.931Z,0.86
2023-02-27T13:24:32.392Z,0.83
2023-02-27T13:27:08.559Z,0.79
2023-02-27T13:29:48.667Z,0.78
2023-02-27T13:32:55.291Z,0.82
2023-02-27T13:35:44.194Z,0.83
2023-02-27T13:38:41.524Z,0.89
2023-02-27T13:41:21.616Z,0.92
2023-02-27T13:43:52.823Z,1.06
2023-02-27T13:46:26.889Z,1.13
2023-02-27T13:49:06.659Z,1.08
2023-02-27T13:51:38.627Z,1.05
2023-02-27T13:54:09.288Z,1.01
2023-02-27T13:56:37.254Z,1.03
2023-02-27T13:59:30.121Z,1.09
2023-02-27T14:02:01.435Z,1.09
2023-02-27T14:04:36.323Z,1.08
2023-02-27T14:07:19.717Z,1.10
2023-02-27T14:09:51.474Z,1.13
2023-02-27T14:12:45.521Z,1.11
2023-02-27T14:15:19.729Z,1.10
2023-02-27T14:18:12.384Z,1.12
2023-02-27T14:20:43.515Z,1.11
2023-02-27T14:23:16.996Z,1.15
2023-02-27T14:25:57.094Z,1.15
2023-02-27T14:28:57.691Z,1.13
2023-02-27T14:31:41.809Z,1.05
2023-02-27T14:34:16.367Z,0.99
2023-02-27T14:36:50.658Z,1.02
2023-02-27T14:39:29.265Z,1.01
2023-02-27T14:42:27.474Z,1.03
2023-02-27T14:44:56.118Z,0.95
2023-02-27T14:47:35.889Z,0.90
2023-02-27T14:50:05.245Z,0.88
2023-02-27T14:52:41.720Z,0.87
2023-02-27T14:55:30.966Z,0.88
2023-02-27T14:58:09.445Z,0.88
2023-02-27T15:00:51.580Z,0.89
2023-02-27T15:03:54.400Z,0.94
2023-02-27T15:06:36.792Z,0.97
2023-02-27T15:09:05.224Z,0.93
2023-02-27T15:11:32.971Z,0.91
2023-02-27T15:14:04.228Z,0.97
2023-02-27T15:16:38.725Z,1.03
2023-02-27T15:19:24.229Z,0.99
2023-02-27T15:22:05.189Z,0.96
2023-02-27T15:24:49.562Z,1.00
2023-02-27T15:27:31.213Z,1.02
2023-02-27T15:30:00.658Z,0.99
2023-02-27T15:32:39.171Z,0.88
2023-02-27T15:35:13.554Z,0.77
2023-02-27T15:37:42.260Z,0.65
2023-02-27T15:40:20.322Z,0.61
2023-02-27T15:42:48.763Z,0.57
2023-02-27T15:45:21.732Z,0.54
2023-02-27T15:47:50.003Z,0.52
2023-02-27T15:50:17.632Z,0.53
2023-02-27T15:53:01.768Z,0.52
2023-02-27T15:55:33.768Z,0.47
2023-02-27T15:58:03.654Z,0.41
2023-02-27T16:00:34.602Z,0.40
2023-02-27T16:03:02.741Z,0.44
2023-02-27T16:05:42.976Z,0.39
2023-02-27T16:08:19.517Z,0.36
2023-02-27T16:10:48.263Z,0.31
2023-02-27T16:13:39.772Z,0.27
2023-02-27T16:16:22.416Z,0.27
2023-02-27T16:19:00.920Z,0.27
2023-02-27T16:21:32.309Z,0.29
2023-02-27T16:24:19.524Z,0.26
2023-02-27T16:26:52.565Z,0.26
2023-02-27T16:29:22.990Z,0.22
2023-02-27T16:31:55.018Z,0.23
2023-02-27T16:34:46.566Z,0.23
2023-02-27T16:37:28.710Z,0.17
2023-02-27T16:39:56.480Z,0.18
2023-02-27T16:42:24.406Z,0.15
2023-02-27T16:44:52.324Z,0.13
2023-02-27T16:47:20.801Z,0.13
2023-02-27T16:49:50.593Z,0.07
2023-02-27T16:52:18.356Z,0.05
2023-02-27T16:54:46.057Z,0.03
2023-02-27T16:57:14.996Z,0.01
2023-02-27T16:59:42.824Z,0.03
2023-02-27T17:02:15.556Z,0.03
2023-02-27T17:04:49.113Z,0.03
2023-02-27T17:07:18.866Z,0.03
2023-02-27T17:09:47.910Z,0.06
2023-02-27T17:12:15.981Z,0.06
2023-02-27T17:14:44.110Z,0.08
2023-02-27T17:17:12.590Z,0.07
2023-02-27T17:19:40.658Z,0.07
2023-02-27T17:22:08.503Z,0.08
2023-02-27T17:24:36.252Z,0.08
2023-02-27T17:27:04.253Z,0.03
2023-02-27T17:29:32.530Z,0.01
2023-02-27T17:32:00.784Z,-0.01
2023-02-27T17:34:28.611Z,-0.05
2023-02-27T17:36:56.445Z,-0.01
2023-02-27T17:39:24.193Z,-0.03
2023-02-27T17:41:53.968Z,-0.05
2023-02-27T17:44:21.629Z,-0.04
2023-02-27T17:46:49.491Z,-0.07
2023-02-27T17:49:17.194Z,-0.05
2023-02-27T17:51:45.050Z,-0.07
2023-02-27T17:54:12.740Z,-0.13
2023-02-27T17:56:40.620Z,-0.13
2023-02-27T17:59:09.669Z,-0.17
2023-02-27T18:01:37.916Z,-0.20
2023-02-27T18:04:08.018Z,-0.25
2023-02-27T18:06:35.889Z,-0.30
2023-02-27T18:09:03.827Z,-0.34
2023-02-27T18:11:31.621Z,-0.37
2023-02-27T18:13:59.633Z,-0.43
2023-02-27T18:16:27.773Z,-0.47
2023-02-27T18:18:55.796Z,-0.49
2023-02-27T18:21:24.725Z,-0.57
2023-02-27T18:23:53.430Z,-0.55
2023-02-27T18:26:30.466Z,-0.62
2023-02-27T18:29:01.287Z,-0.62
2023-02-27T18:31:31.978Z,-0.69
2023-02-27T18:34:00.583Z,-0.75
2023-02-27T18:36:30.335Z,-0.76
2023-02-27T18:38:58.866Z,-0.79
2023-02-27T18:41:27.471Z,-0.80
2023-02-27T18:43:55.234Z,-0.83
2023-02-27T18:46:23.764Z,-0.82
2023-02-27T18:48:51.929Z,-0.85
2023-02-27T18:51:19.812Z,-0.89
2023-02-27T18:53:49.971Z,-0.88
2023-02-27T18:56:24.210Z,-0.90
2023-02-27T18:58:53.073Z,-0.87
2023-02-27T19:01:32.382Z,-0.86
2023-02-27T19:04:04.609Z,-0.86
2023-02-27T19:06:38.012Z,-0.81
2023-02-27T19:09:07.031Z,-0.82
2023-02-27T19:11:35.723Z,-0.81
2023-02-27T19:14:05.533Z,-0.79
2023-02-27T19:16:33.399Z,-0.83
2023-02-27T19:19:03.025Z,-0.82
2023-02-27T19:21:30.736Z,-0.83
2023-02-27T19:23:58.823Z,-0.85
2023-02-27T19:26:27.076Z,-0.89
2023-02-27T19:28:56.832Z,-0.86
2023-02-27T19:31:25.899Z,-0.83
2023-02-27T19:33:53.859Z,-0.80
2023-02-27T19:36:23.771Z,-0.80
2023-02-27T19:38:51.693Z,-0.80
2023-02-27T19:41:20.578Z,-0.83
2023-02-27T19:43:49.117Z,-0.84
2023-02-27T19:46:25.455Z,-0.82
2023-02-27T19:48:54.934Z,-0.80
2023-02-27T19:51:22.776Z,-0.78
2023-02-27T19:53:52.207Z,-0.79
2023-02-27T19:56:23.042Z,-0.80
2023-02-27T19:58:51.726Z,-0.79
2023-02-27T20:01:28.317Z,-0.75
2023-02-27T20:03:57.089Z,-0.75
2023-02-27T20:06:27.816Z,-0.74
2023-02-27T20:08:56.756Z,-0.75
2023-02-27T20:11:24.709Z,-0.73
2023-02-27T20:13:52.929Z,-0.76
2023-02-27T20:16:23.385Z,-0.77
2023-02-27T20:18:51.361Z,-0.76
2023-02-27T20:21:21.358Z,-0.75
2023-02-27T20:23:51.336Z,-0.77
2023-02-27T20:26:29.838Z,-0.73
2023-02-27T20:29:01.945Z,-0.72
2023-02-27T20:31:32.989Z,-0.72
2023-02-27T20:34:02.441Z,-0.71
2023-02-27T20:36:30.261Z,-0.71
2023-02-27T20:38:58.175Z,-0.67
2023-02-27T20:41:29.899Z,-0.67
2023-02-27T20:43:58.156Z,-0.65
2023-02-27T20:46:29.645Z,-0.63
2023-02-27T20:49:01.321Z,-0.60
2023-02-27T20:51:32.702Z,-0.60
2023-02-27T20:54:01.277Z,-0.60
2023-02-27T20:56:34.693Z,-0.64
2023-02-27T20:59:07.960Z,-0.64
2023-02-27T21:01:38.223Z,-0.70
2023-02-27T21:04:06.424Z,-0.72
2023-02-27T21:06:35.897Z,-0.71
2023-02-27T21:09:06.889Z,-0.70
2023-02-27T21:11:34.914Z,-0.74
2023-02-27T21:14:10.208Z,-0.79
2023-02-27T21:16:39.798Z,-0.81
2023-02-27T21:19:08.484Z,-0.86
2023-02-27T21:21:37.629Z,-0.87
2023-02-27T21:24:06.738Z,-0.90
2023-02-27T21:26:38.972Z,-0.94
2023-02-27T21:29:10.135Z,-0.95
2023-02-27T21:31:39.589Z,-0.94
2023-02-27T21:34:12.402Z,-0.96
2023-02-27T21:36:43.434Z,-0.95
2023-02-27T21:39:26.973Z,-0.98
2023-02-27T21:41:55.364Z,-1.00
2023-02-27T21:44:27.720Z,-1.01
2023-02-27T21:46:55.571Z,-1.05
2023-02-27T21:49:28.813Z,-1.05
2023-02-27T21:51:56.875Z,-1.06
2023-02-27T21:54:25.104Z,-1.08
2023-02-27T21:56:52.931Z,-1.09
2023-02-27T21:59:21.847Z,-1.08
2023-02-27T22:01:49.630Z,-1.11
2023-02-27T22:04:19.625Z,-1.10
2023-02-27T22:06:48.781Z,-1.05
2023-02-27T22:09:16.628Z,-1.03
2023-02-27T22:11:44.461Z,-0.99
2023-02-27T22:14:13.533Z,-1.02
2023-02-27T22:16:41.884Z,-1.05
2023-02-27T22:19:11.978Z,-1.00
2023-02-27T22:21:40.479Z,-0.99
2023-02-27T22:24:08.910Z,-0.98
2023-02-27T22:26:37.112Z,-0.98
2023-02-27T22:29:06.255Z,-0.96
2023-02-27T22:31:36.601Z,-0.91
2023-02-27T22:34:08.347Z,-0.94
2023-02-27T22:36:36.922Z,-0.93
2023-02-27T22:39:06.633Z,-0.93
2023-02-27T22:41:37.050Z,-0.94
2023-02-27T22:44:05.356Z,-0.99
2023-02-27T22:46:38.568Z,-0.96
2023-02-27T22:49:16.824Z,-0.93
2023-02-27T22:51:44.634Z,-0.92
2023-02-27T22:54:14.645Z,-0.95
2023-02-27T22:56:42.965Z,-0.94
2023-02-27T22:59:11.418Z,-0.93
2023-02-27T23:01:39.609Z,-0.95
2023-02-27T23:04:10.157Z,-0.93
2023-02-27T23:06:40.712Z,-0.93
2023-02-27T23:09:11.896Z,-0.87
2023-02-27T23:11:39.787Z,-0.86
2023-02-27T23:14:07.977Z,-0.83
2023-02-27T23:16:36.290Z,-0.81
2023-02-27T23:19:05.228Z,-0.79
2023-02-27T23:21:35.561Z,-0.79
2023-02-27T23:24:11.598Z,-0.85
2023-02-27T23:26:41.391Z,-0.84
2023-02-27T23:29:10.256Z,-0.81
2023-02-27T23:31:39.210Z,-0.81
2023-02-27T23:34:08.134Z,-0.81
2023-02-27T23:36:37.145Z,-0.83
2023-02-27T23:39:06.161Z,-0.85
2023-02-27T23:41:35.175Z,-0.85
2023-02-27T23:44:21.838Z,-0.90
2023-02-27T23:46:49.617Z,-0.90
2023-02-27T23:49:17.407Z,-0.89
2023-02-27T23:51:45.141Z,-0.91
2023-02-27T23:54:13.035Z,-0.90
2023-02-27T23:56:40.820Z,-0.86
2023-02-27T23:59:08.801Z,-0.87
